sensor_id;sensor_type;location;lat;lon;timestamp;pressure;altitude;pressure_sealevel;temperature;humidity
50592;BME280;36548;50.506;30.834;2023-05-20T00:00:14;100809.05;;;16.86;69.94
50592;BME280;36548;50.506;30.834;2023-05-20T00:01:29;100805.85;;;17.03;69.56
50592;BME280;36548;50.506;30.834;2023-05-20T00:02:39;100804.48;;;16.86;69.55
50592;BME280;36548;50.506;30.834;2023-05-20T00:03:49;100810.55;;;16.90;69.53
50592;BME280;36548;50.506;30.834;2023-05-20T00:05:04;100803.82;;;17.17;69.13
50592;BME280;36548;50.506;30.834;2023-05-20T00:06:14;100805.06;;;17.13;68.78
50592;BME280;36548;50.506;30.834;2023-05-20T00:07:31;100808.07;;;17.42;68.27
50592;BME280;36548;50.506;30.834;2023-05-20T00:08:39;100812.22;;;17.14;68.16
50592;BME280;36548;50.506;30.834;2023-05-20T00:09:54;100793.53;;;17.32;68.29
50592;BME280;36548;50.506;30.834;2023-05-20T00:11:03;100801.20;;;17.27;67.79
50592;BME280;36548;50.506;30.834;2023-05-20T00:12:19;100798.70;;;17.35;67.76
50592;BME280;36548;50.506;30.834;2023-05-20T00:13:30;100811.06;;;17.28;67.82
50592;BME280;36548;50.506;30.834;2023-05-20T00:14:45;100788.16;;;17.20;68.48
50592;BME280;36548;50.506;30.834;2023-05-20T00:15:54;100786.70;;;17.16;68.18
50592;BME280;36548;50.506;30.834;2023-05-20T00:17:09;100795.95;;;17.14;68.47
50592;BME280;36548;50.506;30.834;2023-05-20T00:18:19;100795.37;;;16.99;68.73
50592;BME280;36548;50.506;30.834;2023-05-20T00:19:34;100792.87;;;17.07;69.19
50592;BME280;36548;50.506;30.834;2023-05-20T00:20:44;100796.12;;;17.01;68.81
50592;BME280;36548;50.506;30.834;2023-05-20T00:22:00;100788.69;;;17.14;68.83
50592;BME280;36548;50.506;30.834;2023-05-20T00:23:09;100791.18;;;17.06;68.56
50592;BME280;36548;50.506;30.834;2023-05-20T00:24:24;100793.45;;;17.22;68.26
50592;BME280;36548;50.506;30.834;2023-05-20T00:25:33;100790.07;;;16.97;68.50
50592;BME280;36548;50.506;30.834;2023-05-20T00:26:48;100792.38;;;17.13;68.55
50592;BME280;36548;50.506;30.834;2023-05-20T00:27:57;100788.11;;;16.88;68.82
50592;BME280;36548;50.506;30.834;2023-05-20T00:29:12;100782.91;;;17.08;68.90
50592;BME280;36548;50.506;30.834;2023-05-20T00:30:22;100795.50;;;16.86;69.01
50592;BME280;36548;50.506;30.834;2023-05-20T00:31:37;100783.18;;;16.93;69.14
50592;BME280;36548;50.506;30.834;2023-05-20T00:32:47;100794.88;;;16.82;69.35
50592;BME280;36548;50.506;30.834;2023-05-20T00:34:03;100797.09;;;17.00;69.23
50592;BME280;36548;50.506;30.834;2023-05-20T00:35:12;100787.36;;;16.86;69.38
50592;BME280;36548;50.506;30.834;2023-05-20T00:36:28;100784.03;;;16.82;69.42
50592;BME280;36548;50.506;30.834;2023-05-20T00:37:37;100790.84;;;16.65;69.78
50592;BME280;36548;50.506;30.834;2023-05-20T00:38:52;100781.48;;;16.92;69.46
50592;BME280;36548;50.506;30.834;2023-05-20T00:40:02;100792.30;;;16.81;69.15
50592;BME280;36548;50.506;30.834;2023-05-20T00:41:18;100785.63;;;16.85;69.25
50592;BME280;36548;50.506;30.834;2023-05-20T00:42:27;100792.94;;;16.73;69.18
50592;BME280;36548;50.506;30.834;2023-05-20T00:43:43;100791.57;;;16.79;69.60
50592;BME280;36548;50.506;30.834;2023-05-20T00:44:52;100793.55;;;16.65;69.66
50592;BME280;36548;50.506;30.834;2023-05-20T00:46:02;100794.33;;;16.56;70.13
50592;BME280;36548;50.506;30.834;2023-05-20T00:47:19;100804.39;;;16.65;70.26
50592;BME280;36548;50.506;30.834;2023-05-20T00:48:32;100793.57;;;16.54;70.19
50592;BME280;36548;50.506;30.834;2023-05-20T00:49:49;100787.28;;;16.65;70.10
50592;BME280;36548;50.506;30.834;2023-05-20T00:51:00;100802.92;;;16.61;70.20
50592;BME280;36548;50.506;30.834;2023-05-20T00:52:17;100792.91;;;16.84;69.96
50592;BME280;36548;50.506;30.834;2023-05-20T00:53:26;100796.63;;;16.72;69.21
50592;BME280;36548;50.506;30.834;2023-05-20T00:54:42;100789.09;;;16.87;69.10
50592;BME280;36548;50.506;30.834;2023-05-20T00:55:53;100794.91;;;16.94;69.04
50592;BME280;36548;50.506;30.834;2023-05-20T00:57:04;100801.44;;;16.80;69.02
50592;BME280;36548;50.506;30.834;2023-05-20T00:58:21;100802.55;;;16.77;69.21
50592;BME280;36548;50.506;30.834;2023-05-20T00:59:30;100809.96;;;16.52;69.65
50592;BME280;36548;50.506;30.834;2023-05-20T01:00:39;100803.91;;;16.72;69.10
50592;BME280;36548;50.506;30.834;2023-05-20T01:01:55;100796.15;;;16.78;69.29
50592;BME280;36548;50.506;30.834;2023-05-20T01:03:05;100795.42;;;16.65;69.26
50592;BME280;36548;50.506;30.834;2023-05-20T01:04:21;100796.15;;;16.78;69.09
50592;BME280;36548;50.506;30.834;2023-05-20T01:05:31;100794.55;;;16.53;69.30
50592;BME280;36548;50.506;30.834;2023-05-20T01:06:47;100793.20;;;16.70;69.23
50592;BME280;36548;50.506;30.834;2023-05-20T01:07:58;100796.03;;;16.57;69.19
50592;BME280;36548;50.506;30.834;2023-05-20T01:09:08;100791.25;;;16.49;69.46
50592;BME280;36548;50.506;30.834;2023-05-20T01:10:18;100795.80;;;16.38;69.90
50592;BME280;36548;50.506;30.834;2023-05-20T01:11:33;100788.53;;;16.49;69.75
50592;BME280;36548;50.506;30.834;2023-05-20T01:12:50;100790.13;;;16.41;70.37
50592;BME280;36548;50.506;30.834;2023-05-20T01:14:04;100796.17;;;16.22;70.63
50592;BME280;36548;50.506;30.834;2023-05-20T01:15:21;100791.23;;;16.27;70.93
50592;BME280;36548;50.506;30.834;2023-05-20T01:16:32;100798.97;;;15.97;71.54
50592;BME280;36548;50.506;30.834;2023-05-20T01:17:51;100789.78;;;16.34;70.58
50592;BME280;36548;50.506;30.834;2023-05-20T01:19:02;100795.17;;;16.23;70.84
50592;BME280;36548;50.506;30.834;2023-05-20T01:20:20;100791.98;;;16.29;70.52
50592;BME280;36548;50.506;30.834;2023-05-20T01:21:31;100793.34;;;16.34;69.87
50592;BME280;36548;50.506;30.834;2023-05-20T01:22:54;100797.16;;;16.32;70.11
50592;BME280;36548;50.506;30.834;2023-05-20T01:24:09;100790.99;;;16.52;69.43
50592;BME280;36548;50.506;30.834;2023-05-20T01:25:19;100793.59;;;16.43;69.14
50592;BME280;36548;50.506;30.834;2023-05-20T01:26:37;100780.66;;;16.46;69.44
50592;BME280;36548;50.506;30.834;2023-05-20T01:27:48;100790.75;;;16.44;69.11
50592;BME280;36548;50.506;30.834;2023-05-20T01:29:04;100787.03;;;16.68;69.03
50592;BME280;36548;50.506;30.834;2023-05-20T01:30:16;100785.94;;;16.59;68.64
50592;BME280;36548;50.506;30.834;2023-05-20T01:31:34;100782.61;;;16.56;68.85
50592;BME280;36548;50.506;30.834;2023-05-20T01:32:51;100788.55;;;16.38;69.07
50592;BME280;36548;50.506;30.834;2023-05-20T01:34:08;100790.25;;;16.28;69.79
50592;BME280;36548;50.506;30.834;2023-05-20T01:35:19;100797.41;;;16.29;69.58
50592;BME280;36548;50.506;30.834;2023-05-20T01:36:36;100786.70;;;16.27;69.66
50592;BME280;36548;50.506;30.834;2023-05-20T01:37:46;100791.73;;;16.09;69.71
50592;BME280;36548;50.506;30.834;2023-05-20T01:39:02;100786.44;;;16.42;69.27
50592;BME280;36548;50.506;30.834;2023-05-20T01:40:14;100795.92;;;16.36;69.29
50592;BME280;36548;50.506;30.834;2023-05-20T01:41:32;100792.96;;;16.28;69.22
50592;BME280;36548;50.506;30.834;2023-05-20T01:42:44;100790.38;;;16.15;69.35
50592;BME280;36548;50.506;30.834;2023-05-20T01:44:01;100793.69;;;16.18;69.50
50592;BME280;36548;50.506;30.834;2023-05-20T01:45:11;100788.52;;;16.04;69.80
50592;BME280;36548;50.506;30.834;2023-05-20T01:46:21;100799.09;;;15.96;69.54
50592;BME280;36548;50.506;30.834;2023-05-20T01:47:37;100790.77;;;16.22;69.24
50592;BME280;36548;50.506;30.834;2023-05-20T01:48:52;100801.28;;;15.91;69.71
50592;BME280;36548;50.506;30.834;2023-05-20T01:50:01;100800.33;;;16.03;69.35
50592;BME280;36548;50.506;30.834;2023-05-20T01:51:17;100807.70;;;15.90;70.03
50592;BME280;36548;50.506;30.834;2023-05-20T01:52:27;100813.53;;;15.72;70.23
50592;BME280;36548;50.506;30.834;2023-05-20T01:53:54;100797.98;;;15.87;70.13
50592;BME280;36548;50.506;30.834;2023-05-20T01:55:04;100795.95;;;15.78;70.09
50592;BME280;36548;50.506;30.834;2023-05-20T01:56:15;100798.83;;;15.88;69.50
50592;BME280;36548;50.506;30.834;2023-05-20T01:57:30;100796.77;;;16.02;69.61
50592;BME280;36548;50.506;30.834;2023-05-20T01:58:39;100795.73;;;15.81;69.44
50592;BME280;36548;50.506;30.834;2023-05-20T01:59:54;100797.16;;;16.21;68.54
50592;BME280;36548;50.506;30.834;2023-05-20T02:01:03;100802.17;;;15.91;69.04
50592;BME280;36548;50.506;30.834;2023-05-20T02:02:19;100804.39;;;16.09;68.62
50592;BME280;36548;50.506;30.834;2023-05-20T02:03:28;100797.34;;;15.83;69.17
50592;BME280;36548;50.506;30.834;2023-05-20T02:04:45;100793.20;;;16.02;68.81
50592;BME280;36548;50.506;30.834;2023-05-20T02:05:58;100801.81;;;16.07;68.62
50592;BME280;36548;50.506;30.834;2023-05-20T02:07:14;100790.25;;;16.05;68.70
50592;BME280;36548;50.506;30.834;2023-05-20T02:08:25;100800.83;;;16.08;68.43
50592;BME280;36548;50.506;30.834;2023-05-20T02:09:34;100810.05;;;15.94;68.55
50592;BME280;36548;50.506;30.834;2023-05-20T02:10:49;100793.69;;;16.07;68.54
50592;BME280;36548;50.506;30.834;2023-05-20T02:11:58;100794.65;;;15.95;68.32
50592;BME280;36548;50.506;30.834;2023-05-20T02:13:08;100803.42;;;16.10;68.08
50592;BME280;36548;50.506;30.834;2023-05-20T02:14:23;100801.69;;;16.09;68.33
50592;BME280;36548;50.506;30.834;2023-05-20T02:15:33;100802.05;;;15.93;68.57
50592;BME280;36548;50.506;30.834;2023-05-20T02:16:48;100801.55;;;15.99;68.53
50592;BME280;36548;50.506;30.834;2023-05-20T02:17:58;100805.48;;;15.95;68.53
50592;BME280;36548;50.506;30.834;2023-05-20T02:19:11;100805.85;;;15.90;68.31
50592;BME280;36548;50.506;30.834;2023-05-20T02:20:22;100805.97;;;15.89;68.50
50592;BME280;36548;50.506;30.834;2023-05-20T02:21:32;100814.22;;;15.87;68.73
50592;BME280;36548;50.506;30.834;2023-05-20T02:22:48;100802.69;;;16.08;68.23
50592;BME280;36548;50.506;30.834;2023-05-20T02:23:57;100809.78;;;15.86;68.74
50592;BME280;36548;50.506;30.834;2023-05-20T02:25:12;100809.05;;;15.84;69.02
50592;BME280;36548;50.506;30.834;2023-05-20T02:26:21;100809.82;;;15.62;69.30
50592;BME280;36548;50.506;30.834;2023-05-20T02:27:37;100807.56;;;15.80;69.27
50592;BME280;36548;50.506;30.834;2023-05-20T02:28:47;100805.38;;;15.61;69.34
50592;BME280;36548;50.506;30.834;2023-05-20T02:30:05;100806.47;;;15.82;69.04
50592;BME280;36548;50.506;30.834;2023-05-20T02:31:14;100815.23;;;15.62;68.96
50592;BME280;36548;50.506;30.834;2023-05-20T02:32:30;100803.92;;;15.68;69.31
50592;BME280;36548;50.506;30.834;2023-05-20T02:33:41;100815.23;;;15.62;69.25
50592;BME280;36548;50.506;30.834;2023-05-20T02:34:57;100813.01;;;15.67;69.12
50592;BME280;36548;50.506;30.834;2023-05-20T02:36:09;100816.90;;;15.51;69.57
50592;BME280;36548;50.506;30.834;2023-05-20T02:37:24;100819.12;;;15.46;69.87
50592;BME280;36548;50.506;30.834;2023-05-20T02:38:34;100811.00;;;15.46;70.06
50592;BME280;36548;50.506;30.834;2023-05-20T02:39:50;100813.95;;;15.55;69.51
50592;BME280;36548;50.506;30.834;2023-05-20T02:40:59;100811.61;;;15.50;69.54
50592;BME280;36548;50.506;30.834;2023-05-20T02:42:09;100817.70;;;15.41;69.57
50592;BME280;36548;50.506;30.834;2023-05-20T02:43:18;100817.55;;;15.31;70.03
50592;BME280;36548;50.506;30.834;2023-05-20T02:44:33;100819.97;;;15.47;70.04
50592;BME280;36548;50.506;30.834;2023-05-20T02:45:44;100812.13;;;15.31;70.21
50592;BME280;36548;50.506;30.834;2023-05-20T02:46:59;100815.77;;;15.43;70.09
50592;BME280;36548;50.506;30.834;2023-05-20T02:48:09;100819.56;;;15.40;70.04
50592;BME280;36548;50.506;30.834;2023-05-20T02:49:25;100812.52;;;15.62;69.19
50592;BME280;36548;50.506;30.834;2023-05-20T02:50:39;100825.62;;;15.44;69.55
50592;BME280;36548;50.506;30.834;2023-05-20T02:51:48;100825.02;;;15.51;69.49
50592;BME280;36548;50.506;30.834;2023-05-20T02:53:05;100815.02;;;15.76;68.56
50592;BME280;36548;50.506;30.834;2023-05-20T02:54:15;100821.70;;;15.83;68.55
50592;BME280;36548;50.506;30.834;2023-05-20T02:55:33;100816.44;;;15.93;68.06
50592;BME280;36548;50.506;30.834;2023-05-20T02:56:45;100825.97;;;15.75;68.41
50592;BME280;36548;50.506;30.834;2023-05-20T02:58:00;100818.66;;;15.88;68.12
50592;BME280;36548;50.506;30.834;2023-05-20T02:59:10;100824.44;;;15.59;68.70
50592;BME280;36548;50.506;30.834;2023-05-20T03:00:27;100832.89;;;15.55;69.26
50592;BME280;36548;50.506;30.834;2023-05-20T03:01:40;100822.55;;;15.48;69.42
50592;BME280;36548;50.506;30.834;2023-05-20T03:02:55;100816.53;;;15.80;68.62
50592;BME280;36548;50.506;30.834;2023-05-20T03:04:05;100833.02;;;15.53;68.83
50592;BME280;36548;50.506;30.834;2023-05-20T03:05:21;100824.20;;;15.62;69.55
50592;BME280;36548;50.506;30.834;2023-05-20T03:06:30;100825.83;;;15.41;69.69
50592;BME280;36548;50.506;30.834;2023-05-20T03:07:45;100822.31;;;15.51;69.35
50592;BME280;36548;50.506;30.834;2023-05-20T03:08:57;100833.09;;;15.40;69.66
50592;BME280;36548;50.506;30.834;2023-05-20T03:10:08;100846.80;;;15.26;69.88
50592;BME280;36548;50.506;30.834;2023-05-20T03:11:20;100832.19;;;15.28;70.32
50592;BME280;36548;50.506;30.834;2023-05-20T03:12:35;100827.56;;;15.42;70.07
50592;BME280;36548;50.506;30.834;2023-05-20T03:13:45;100831.88;;;15.44;69.76
50592;BME280;36548;50.506;30.834;2023-05-20T03:15:04;100832.64;;;15.46;69.53
50592;BME280;36548;50.506;30.834;2023-05-20T03:16:13;100827.59;;;15.53;69.28
50592;BME280;36548;50.506;30.834;2023-05-20T03:17:31;100834.02;;;15.88;68.69
50592;BME280;36548;50.506;30.834;2023-05-20T03:18:40;100840.66;;;15.83;68.31
50592;BME280;36548;50.506;30.834;2023-05-20T03:19:55;100826.55;;;16.02;68.34
50592;BME280;36548;50.506;30.834;2023-05-20T03:21:05;100836.41;;;16.04;67.58
50592;BME280;36548;50.506;30.834;2023-05-20T03:22:20;100835.17;;;15.96;68.16
50592;BME280;36548;50.506;30.834;2023-05-20T03:23:30;100835.51;;;15.92;67.93
50592;BME280;36548;50.506;30.834;2023-05-20T03:24:40;100842.66;;;15.68;68.36
50592;BME280;36548;50.506;30.834;2023-05-20T03:25:53;100843.70;;;15.79;68.21
50592;BME280;36548;50.506;30.834;2023-05-20T03:27:03;100845.03;;;15.73;68.35
50592;BME280;36548;50.506;30.834;2023-05-20T03:28:15;100847.98;;;15.70;68.42
50592;BME280;36548;50.506;30.834;2023-05-20T03:29:30;100848.46;;;15.99;68.29
50592;BME280;36548;50.506;30.834;2023-05-20T03:30:41;100852.39;;;15.95;67.75
50592;BME280;36548;50.506;30.834;2023-05-20T03:31:51;100844.75;;;16.00;67.73
50592;BME280;36548;50.506;30.834;2023-05-20T03:33:06;100855.92;;;15.84;67.99
50592;BME280;36548;50.506;30.834;2023-05-20T03:34:16;100857.05;;;15.93;67.88
50592;BME280;36548;50.506;30.834;2023-05-20T03:35:32;100846.73;;;15.98;67.75
50592;BME280;36548;50.506;30.834;2023-05-20T03:36:42;100846.02;;;16.08;67.21
50592;BME280;36548;50.506;30.834;2023-05-20T03:37:57;100848.11;;;16.15;67.03
50592;BME280;36548;50.506;30.834;2023-05-20T03:39:06;100843.33;;;16.19;66.95
50592;BME280;36548;50.506;30.834;2023-05-20T03:40:22;100841.47;;;16.19;66.74
50592;BME280;36548;50.506;30.834;2023-05-20T03:41:32;100846.05;;;16.53;66.08
50592;BME280;36548;50.506;30.834;2023-05-20T03:42:47;100836.42;;;16.83;65.67
50592;BME280;36548;50.506;30.834;2023-05-20T03:44:01;100847.16;;;16.96;64.20
50592;BME280;36548;50.506;30.834;2023-05-20T03:45:10;100839.15;;;16.94;63.90
50592;BME280;36548;50.506;30.834;2023-05-20T03:46:26;100841.22;;;16.79;64.61
50592;BME280;36548;50.506;30.834;2023-05-20T03:47:35;100853.81;;;16.69;64.40
50592;BME280;36548;50.506;30.834;2023-05-20T03:48:50;100849.22;;;17.15;64.57
50592;BME280;36548;50.506;30.834;2023-05-20T03:50:00;100849.61;;;16.99;63.66
50592;BME280;36548;50.506;30.834;2023-05-20T03:51:16;100840.00;;;17.06;63.88
50592;BME280;36548;50.506;30.834;2023-05-20T03:52:26;100852.94;;;17.02;63.04
50592;BME280;36548;50.506;30.834;2023-05-20T03:53:42;100838.73;;;17.21;63.24
50592;BME280;36548;50.506;30.834;2023-05-20T03:54:52;100837.03;;;17.09;63.54
50592;BME280;36548;50.506;30.834;2023-05-20T03:56:07;100844.81;;;17.46;62.55
50592;BME280;36548;50.506;30.834;2023-05-20T03:57:18;100842.41;;;17.53;62.74
50592;BME280;36548;50.506;30.834;2023-05-20T03:58:33;100840.39;;;17.66;61.10
50592;BME280;36548;50.506;30.834;2023-05-20T03:59:42;100854.73;;;17.25;62.41
50592;BME280;36548;50.506;30.834;2023-05-20T04:00:52;100847.94;;;17.30;61.99
50592;BME280;36548;50.506;30.834;2023-05-20T04:02:09;100852.34;;;17.43;62.29
50592;BME280;36548;50.506;30.834;2023-05-20T04:03:18;100860.35;;;17.44;62.81
50592;BME280;36548;50.506;30.834;2023-05-20T04:04:53;100851.67;;;17.50;62.15
50592;BME280;36548;50.506;30.834;2023-05-20T04:06:04;100859.53;;;17.65;62.70
50592;BME280;36548;50.506;30.834;2023-05-20T04:07:13;100852.45;;;17.73;60.69
50592;BME280;36548;50.506;30.834;2023-05-20T04:08:28;100856.52;;;18.00;61.54
50592;BME280;36548;50.506;30.834;2023-05-20T04:09:38;100864.02;;;18.08;60.42
50592;BME280;36548;50.506;30.834;2023-05-20T04:10:56;100853.87;;;18.31;60.11
50592;BME280;36548;50.506;30.834;2023-05-20T04:12:06;100856.64;;;18.41;60.33
50592;BME280;36548;50.506;30.834;2023-05-20T04:13:24;100861.22;;;18.71;58.86
50592;BME280;36548;50.506;30.834;2023-05-20T04:14:33;100863.69;;;18.84;59.89
50592;BME280;36548;50.506;30.834;2023-05-20T04:15:48;100855.36;;;19.27;58.33
50592;BME280;36548;50.506;30.834;2023-05-20T04:17:02;100858.38;;;19.33;57.33
50592;BME280;36548;50.506;30.834;2023-05-20T04:18:18;100853.53;;;19.56;56.13
50592;BME280;36548;50.506;30.834;2023-05-20T04:19:28;100857.55;;;19.42;55.36
50592;BME280;36548;50.506;30.834;2023-05-20T04:20:47;100865.57;;;19.54;56.31
50592;BME280;36548;50.506;30.834;2023-05-20T04:22:22;100861.00;;;19.74;56.32
50592;BME280;36548;50.506;30.834;2023-05-20T04:23:32;100852.95;;;19.63;54.59
50592;BME280;36548;50.506;30.834;2023-05-20T04:24:48;100855.41;;;19.66;54.45
50592;BME280;36548;50.506;30.834;2023-05-20T04:25:58;100852.39;;;19.59;55.25
50592;BME280;36548;50.506;30.834;2023-05-20T04:27:15;100848.52;;;19.71;55.63
50592;BME280;36548;50.506;30.834;2023-05-20T04:28:25;100857.84;;;19.79;55.65
50592;BME280;36548;50.506;30.834;2023-05-20T04:29:42;100852.95;;;20.12;55.34
50592;BME280;36548;50.506;30.834;2023-05-20T04:30:58;100851.09;;;20.02;54.01
50592;BME280;36548;50.506;30.834;2023-05-20T04:32:08;100853.20;;;20.18;54.05
50592;BME280;36548;50.506;30.834;2023-05-20T04:33:19;100861.28;;;20.10;52.95
50592;BME280;36548;50.506;30.834;2023-05-20T04:34:34;100860.08;;;20.22;53.19
50592;BME280;36548;50.506;30.834;2023-05-20T04:35:45;100858.38;;;20.21;53.95
50592;BME280;36548;50.506;30.834;2023-05-20T04:37:02;100850.53;;;20.46;53.13
50592;BME280;36548;50.506;30.834;2023-05-20T04:38:11;100857.56;;;20.49;53.36
50592;BME280;36548;50.506;30.834;2023-05-20T04:39:26;100856.47;;;20.79;52.61
50592;BME280;36548;50.506;30.834;2023-05-20T04:40:36;100865.97;;;20.65;51.54
50592;BME280;36548;50.506;30.834;2023-05-20T04:41:53;100864.55;;;20.71;51.32
50592;BME280;36548;50.506;30.834;2023-05-20T04:43:05;100866.59;;;20.59;50.61
50592;BME280;36548;50.506;30.834;2023-05-20T04:44:21;100876.40;;;20.89;51.70
50592;BME280;36548;50.506;30.834;2023-05-20T04:45:32;100869.52;;;20.85;51.01
50592;BME280;36548;50.506;30.834;2023-05-20T04:46:43;100866.17;;;20.91;50.82
50592;BME280;36548;50.506;30.834;2023-05-20T04:48:01;100862.17;;;21.14;50.47
50592;BME280;36548;50.506;30.834;2023-05-20T04:49:11;100866.94;;;21.11;50.37
50592;BME280;36548;50.506;30.834;2023-05-20T04:50:27;100868.06;;;21.37;49.35
50592;BME280;36548;50.506;30.834;2023-05-20T04:51:37;100864.36;;;21.28;49.09
50592;BME280;36548;50.506;30.834;2023-05-20T04:52:52;100866.98;;;21.48;49.48
50592;BME280;36548;50.506;30.834;2023-05-20T04:54:01;100867.83;;;21.48;49.41
50592;BME280;36548;50.506;30.834;2023-05-20T04:55:11;100860.44;;;21.58;48.13
50592;BME280;36548;50.506;30.834;2023-05-20T04:56:26;100862.56;;;21.65;48.22
50592;BME280;36548;50.506;30.834;2023-05-20T04:57:36;100867.16;;;21.64;48.81
50592;BME280;36548;50.506;30.834;2023-05-20T04:58:53;100872.73;;;21.44;47.72
50592;BME280;36548;50.506;30.834;2023-05-20T05:00:04;100868.70;;;21.03;48.28
50592;BME280;36548;50.506;30.834;2023-05-20T05:01:21;100860.01;;;21.17;48.69
50592;BME280;36548;50.506;30.834;2023-05-20T05:02:31;100867.22;;;21.08;48.65
50592;BME280;36548;50.506;30.834;2023-05-20T05:03:46;100860.07;;;21.07;48.51
50592;BME280;36548;50.506;30.834;2023-05-20T05:04:57;100864.05;;;21.13;49.52
50592;BME280;36548;50.506;30.834;2023-05-20T05:06:07;100862.73;;;21.17;48.69
50592;BME280;36548;50.506;30.834;2023-05-20T05:07:23;100858.19;;;21.54;49.28
50592;BME280;36548;50.506;30.834;2023-05-20T05:08:33;100855.53;;;21.62;48.93
50592;BME280;36548;50.506;30.834;2023-05-20T05:09:44;100848.58;;;21.68;48.13
50592;BME280;36548;50.506;30.834;2023-05-20T05:10:53;100857.77;;;21.85;47.21
50592;BME280;36548;50.506;30.834;2023-05-20T05:12:04;100852.60;;;22.00;47.46
50592;BME280;36548;50.506;30.834;2023-05-20T05:13:20;100843.55;;;21.99;45.97
50592;BME280;36548;50.506;30.834;2023-05-20T05:14:29;100854.59;;;21.89;46.25
50592;BME280;36548;50.506;30.834;2023-05-20T05:15:44;100850.52;;;21.93;46.38
50592;BME280;36548;50.506;30.834;2023-05-20T05:16:53;100851.14;;;21.87;47.16
50592;BME280;36548;50.506;30.834;2023-05-20T05:18:03;100851.75;;;21.99;47.33
50592;BME280;36548;50.506;30.834;2023-05-20T05:19:14;100849.87;;;22.00;46.25
50592;BME280;36548;50.506;30.834;2023-05-20T05:20:30;100846.97;;;22.01;46.27
50592;BME280;36548;50.506;30.834;2023-05-20T05:21:39;100853.33;;;21.48;46.90
50592;BME280;36548;50.506;30.834;2023-05-20T05:22:48;100868.16;;;21.45;47.32
50592;BME280;36548;50.506;30.834;2023-05-20T05:24:13;100863.80;;;21.06;47.97
50592;BME280;36548;50.506;30.834;2023-05-20T05:25:23;100864.05;;;21.13;48.13
50592;BME280;36548;50.506;30.834;2023-05-20T05:26:38;100856.83;;;21.40;47.49
50592;BME280;36548;50.506;30.834;2023-05-20T05:27:46;100879.77;;;21.47;47.62
50592;BME280;36548;50.506;30.834;2023-05-20T05:28:58;100866.97;;;21.29;47.17
50592;BME280;36548;50.506;30.834;2023-05-20T05:30:13;100860.95;;;21.26;47.36
50592;BME280;36548;50.506;30.834;2023-05-20T05:31:22;100872.97;;;21.33;47.93
50592;BME280;36548;50.506;30.834;2023-05-20T05:32:37;100867.02;;;21.66;47.73
50592;BME280;36548;50.506;30.834;2023-05-20T05:33:46;100869.34;;;21.78;46.88
50592;BME280;36548;50.506;30.834;2023-05-20T05:35:02;100871.77;;;21.63;46.98
50592;BME280;36548;50.506;30.834;2023-05-20T05:36:11;100873.57;;;21.73;46.91
50592;BME280;36548;50.506;30.834;2023-05-20T05:37:27;100873.69;;;22.07;46.48
50592;BME280;36548;50.506;30.834;2023-05-20T05:38:35;100873.49;;;21.65;45.68
50592;BME280;36548;50.506;30.834;2023-05-20T05:39:50;100870.36;;;21.59;45.98
50592;BME280;36548;50.506;30.834;2023-05-20T05:40:59;100882.02;;;20.88;46.73
50592;BME280;36548;50.506;30.834;2023-05-20T05:42:15;100868.22;;;21.35;46.66
50592;BME280;36548;50.506;30.834;2023-05-20T05:43:24;100874.13;;;21.31;46.71
50592;BME280;36548;50.506;30.834;2023-05-20T05:44:39;100868.59;;;21.40;45.91
50592;BME280;36548;50.506;30.834;2023-05-20T05:45:48;100879.52;;;21.40;46.70
50592;BME280;36548;50.506;30.834;2023-05-20T05:46:59;100881.41;;;21.40;46.19
50592;BME280;36548;50.506;30.834;2023-05-20T05:48:14;100879.20;;;21.71;46.16
50592;BME280;36548;50.506;30.834;2023-05-20T05:49:23;100877.98;;;21.38;46.32
50592;BME280;36548;50.506;30.834;2023-05-20T05:50:41;100883.06;;;21.51;46.58
50592;BME280;36548;50.506;30.834;2023-05-20T05:51:50;100886.83;;;21.68;46.24
50592;BME280;36548;50.506;30.834;2023-05-20T05:53:05;100878.31;;;21.71;46.66
50592;BME280;36548;50.506;30.834;2023-05-20T05:54:16;100882.85;;;21.80;45.66
50592;BME280;36548;50.506;30.834;2023-05-20T05:55:32;100883.12;;;21.41;46.28
50592;BME280;36548;50.506;30.834;2023-05-20T05:56:41;100878.16;;;21.54;46.75
50592;BME280;36548;50.506;30.834;2023-05-20T05:57:57;100882.45;;;21.57;45.79
50592;BME280;36548;50.506;30.834;2023-05-20T05:59:06;100884.74;;;21.61;45.48
50592;BME280;36548;50.506;30.834;2023-05-20T06:00:22;100878.27;;;21.35;46.02
50592;BME280;36548;50.506;30.834;2023-05-20T06:01:32;100884.11;;;21.22;45.95
50592;BME280;36548;50.506;30.834;2023-05-20T06:02:42;100881.53;;;21.20;46.35
50592;BME280;36548;50.506;30.834;2023-05-20T06:03:58;100874.09;;;21.58;46.81
50592;BME280;36548;50.506;30.834;2023-05-20T06:05:08;100881.61;;;21.74;46.10
50592;BME280;36548;50.506;30.834;2023-05-20T06:06:25;100867.95;;;21.74;45.19
50592;BME280;36548;50.506;30.834;2023-05-20T06:07:34;100880.28;;;21.60;44.90
50592;BME280;36548;50.506;30.834;2023-05-20T06:08:49;100871.37;;;21.58;44.99
50592;BME280;36548;50.506;30.834;2023-05-20T06:09:59;100864.42;;;21.64;45.75
50592;BME280;36548;50.506;30.834;2023-05-20T06:11:14;100865.36;;;21.91;44.58
50592;BME280;36548;50.506;30.834;2023-05-20T06:12:24;100873.30;;;22.02;44.95
50592;BME280;36548;50.506;30.834;2023-05-20T06:13:41;100863.59;;;22.08;43.60
50592;BME280;36548;50.506;30.834;2023-05-20T06:14:50;100876.55;;;21.61;44.53
50592;BME280;36548;50.506;30.834;2023-05-20T06:16:05;100877.08;;;21.65;44.93